Smyrna Airport
KMQY : now visible

Airfield :











YOU CAN JOIN US ON...

 
LOGIN :

Register | Disclaimer

   EN    FR    IT 

 









Legend :    VFR   Marginal VFR   IFR   Intensive IFR   Very Intensive IFR
Visi :
Ceiling :
>= 8 km
>= 3000ft
5 to 8 km
1000 to 3000 ft
1500m to 5 km
500 to 1000 ft
800 to 1500m
200 to 500 ft
< 800m
< 200 ft
Symbols :   Thunderstorms  Fog  Heavy snow  Heavy precipitations  Wind > 20 kt






- Airport Elevation : 543 ft


KMQY - Smyrna

CURRENT METAR :
  • 291356Z 02005KT 9SM -RA BKN065 OVC090 03/02 A3010 RMK AO2 SLP202 DZB14E29 P0000 T00330022

EXPIRED METARs :
  • 291256Z 33003KT 6SM BR OVC080 03/02 A3009 RMK AO2 RAE42 SLP202 P0000 T00280017
  • 291156Z AUTO 33004KT 10SM -RA SCT065 OVC090 03/01 A3007 RMK AO2 RAB56 SLP191 P0000 60000 T00280011 10033 20028 55000

TAF KMQY
Valid from the 29 at 12:00 until the 30 at 12:00 UTC


291120Z 2912/3012 VRB04KT P6SM VCSH FEW070 OVC090
FM292100 VRB04KT P6SM VCSH OVC030
FM300200 01005KT P6SM OVC035
FM300700 VRB04KT P6SM BKN008



MET'MAP, your aeronautical weather chart ! - Copyright ORBIFLY December 2007 - Disclaimer

ORBIFLY MET'MAP TEAM :

Programming & Development : Alexandra Zaïnal
Concept & original design : Baudouin d'Aumeries
Assistance for programming : Marc-Olivier Méhu
Technical & hardware support : Manuel Goepfert

Contact : metmap@orbifly.com




SOURCES & CREDITS :

   NOAA       Earth
Advisory